createdAt,value
2022-12-14T00:01:37.125Z,-1.10
2022-12-14T00:04:04.022Z,-1.10
2022-12-14T00:06:35.087Z,-1.10
2022-12-14T00:09:04.603Z,-1.10
2022-12-14T00:11:33.443Z,-1.10
2022-12-14T00:14:03.653Z,-1.00
2022-12-14T00:16:33.079Z,-1.00
2022-12-14T00:19:04.400Z,-1.00
2022-12-14T00:21:31.049Z,-1.00
2022-12-14T00:23:59.431Z,-1.10
2022-12-14T00:26:28.767Z,-1.00
2022-12-14T00:28:55.981Z,-1.00
2022-12-14T00:31:24.769Z,-1.00
2022-12-14T00:33:52.227Z,-1.00
2022-12-14T00:36:19.328Z,-1.00
2022-12-14T00:38:46.046Z,-1.00
2022-12-14T00:41:12.736Z,-1.00
2022-12-14T00:43:40.650Z,-1.00
2022-12-14T00:46:07.567Z,-1.00
2022-12-14T00:48:36.643Z,-1.00
2022-12-14T00:51:03.676Z,-1.00
2022-12-14T00:53:30.519Z,-1.00
2022-12-14T00:55:57.268Z,-1.00
2022-12-14T00:58:25.549Z,-1.00
2022-12-14T01:01:19.081Z,-1.00
2022-12-14T01:03:46.333Z,-1.00
2022-12-14T01:06:18.254Z,-0.90
2022-12-14T01:08:44.952Z,-0.90
2022-12-14T01:11:12.199Z,-0.90
2022-12-14T01:13:39.935Z,-0.90
2022-12-14T01:16:14.958Z,-0.90
2022-12-14T01:18:45.260Z,-0.90
2022-12-14T01:21:14.809Z,-0.90
2022-12-14T01:23:42.713Z,-0.80
2022-12-14T01:26:12.356Z,-0.90
2022-12-14T01:28:39.104Z,-0.80
2022-12-14T01:31:11.224Z,-0.90
2022-12-14T01:33:38.428Z,-0.90
2022-12-14T01:36:10.334Z,-0.90
2022-12-14T01:38:37.528Z,-0.80
2022-12-14T01:41:08.053Z,-0.80
2022-12-14T01:43:51.528Z,-0.80
2022-12-14T01:46:42.112Z,-0.80
2022-12-14T01:49:55.150Z,-0.80
2022-12-14T01:52:30.463Z,-0.80
2022-12-14T01:55:01.185Z,-0.80
2022-12-14T01:57:38.480Z,-0.80
2022-12-14T02:00:09.125Z,-0.80
2022-12-14T02:02:53.098Z,-0.70
2022-12-14T02:05:21.102Z,-0.70
2022-12-14T02:07:50.505Z,-0.70
2022-12-14T02:10:17.700Z,-0.70
2022-12-14T02:12:50.905Z,-0.70
2022-12-14T02:15:18.477Z,-0.70
2022-12-14T02:17:48.877Z,-0.70
2022-12-14T02:20:16.663Z,-0.70
2022-12-14T02:23:07.404Z,-0.70
2022-12-14T02:26:05.011Z,-0.70
2022-12-14T02:28:45.238Z,-0.60
2022-12-14T02:31:18.097Z,-0.60
2022-12-14T02:33:54.589Z,-0.70
2022-12-14T02:36:31.035Z,-0.70
2022-12-14T02:39:15.133Z,-0.60
2022-12-14T02:41:58.899Z,-0.60
2022-12-14T02:44:47.390Z,-0.60
2022-12-14T02:47:51.221Z,-0.60
2022-12-14T02:50:43.132Z,-0.60
2022-12-14T02:53:22.141Z,-0.60
2022-12-14T02:55:51.889Z,-0.60
2022-12-14T02:58:37.086Z,-0.60
2022-12-14T03:01:04.348Z,-0.60
2022-12-14T03:03:31.384Z,-0.60
2022-12-14T03:06:04.324Z,-0.60
2022-12-14T03:08:35.385Z,-0.60
2022-12-14T03:11:06.077Z,-0.60
2022-12-14T03:13:49.234Z,-0.50
2022-12-14T03:16:22.407Z,-0.50
2022-12-14T03:18:58.116Z,-0.50
2022-12-14T03:21:32.163Z,-0.50
2022-12-14T03:24:02.363Z,-0.50
2022-12-14T03:26:47.561Z,-0.50
2022-12-14T03:29:25.728Z,-0.50
2022-12-14T03:32:05.065Z,-0.50
2022-12-14T03:34:36.259Z,-0.50
2022-12-14T03:37:12.966Z,-0.50
2022-12-14T03:39:41.572Z,-0.50
2022-12-14T03:42:30.194Z,-0.50
2022-12-14T03:45:18.308Z,-0.50
2022-12-14T03:48:11.305Z,-0.40
2022-12-14T03:50:55.381Z,-0.50
2022-12-14T03:53:45.214Z,-0.50
2022-12-14T03:56:28.773Z,-0.50
2022-12-14T03:59:21.654Z,-0.50
2022-12-14T04:02:10.009Z,-0.50
2022-12-14T04:04:51.254Z,-0.40
2022-12-14T04:07:33.599Z,-0.50
2022-12-14T04:10:26.334Z,-0.40
2022-12-14T04:13:18.233Z,-0.40
2022-12-14T04:16:22.564Z,-0.50
2022-12-14T04:18:59.887Z,-0.50
2022-12-14T04:21:35.736Z,-0.50
2022-12-14T04:24:42.848Z,-0.40
2022-12-14T04:27:22.513Z,-0.40
2022-12-14T04:29:58.356Z,-0.50
2022-12-14T04:32:36.753Z,-0.50
2022-12-14T04:35:09.873Z,-0.50
2022-12-14T04:37:39.434Z,-0.50
2022-12-14T04:40:14.194Z,-0.50
2022-12-14T04:42:49.560Z,-0.50
2022-12-14T04:45:23.439Z,-0.40
2022-12-14T04:48:14.373Z,-0.40
2022-12-14T04:50:47.660Z,-0.40
2022-12-14T04:53:21.389Z,-0.50
2022-12-14T04:56:08.208Z,-0.40
2022-12-14T04:58:36.401Z,-0.40
2022-12-14T05:01:20.779Z,-0.40
2022-12-14T05:04:12.125Z,-0.50
2022-12-14T05:06:57.704Z,-0.50
2022-12-14T05:09:38.074Z,-0.40
2022-12-14T05:12:26.320Z,-0.50
2022-12-14T05:15:07.437Z,-0.40
2022-12-14T05:17:39.183Z,-0.50
2022-12-14T05:20:12.716Z,-0.50
2022-12-14T05:22:40.114Z,-0.50
2022-12-14T05:25:07.174Z,-0.50
2022-12-14T05:27:33.789Z,-0.50
2022-12-14T05:30:00.408Z,-0.50
2022-12-14T05:32:29.214Z,-0.50
2022-12-14T05:34:55.960Z,-0.50
2022-12-14T05:37:22.584Z,-0.50
2022-12-14T05:39:49.365Z,-0.50
2022-12-14T05:42:16.623Z,-0.50
2022-12-14T05:44:45.712Z,-0.50
2022-12-14T05:47:15.877Z,-0.50
2022-12-14T05:49:42.580Z,-0.50
2022-12-14T05:52:09.231Z,-0.40
2022-12-14T05:54:36.007Z,-0.50
2022-12-14T05:57:06.841Z,-0.40
2022-12-14T05:59:33.626Z,-0.50
2022-12-14T06:02:02.798Z,-0.40
2022-12-14T06:04:29.627Z,-0.40
2022-12-14T06:06:58.808Z,-0.40
2022-12-14T06:09:25.522Z,-0.40
2022-12-14T06:11:52.218Z,-0.40
2022-12-14T06:14:19.079Z,-0.40
2022-12-14T06:16:46.985Z,-0.40
2022-12-14T06:19:14.736Z,-0.50
2022-12-14T06:21:42.769Z,-0.40
2022-12-14T06:24:14.027Z,-0.50
2022-12-14T06:26:44.022Z,-0.50
2022-12-14T06:29:16.501Z,-0.40
2022-12-14T06:31:43.098Z,-0.40
2022-12-14T06:34:12.887Z,-0.40
2022-12-14T06:36:42.150Z,-0.40
2022-12-14T06:39:15.407Z,-0.30
2022-12-14T06:41:42.459Z,-0.30
2022-12-14T06:44:13.017Z,-0.30
2022-12-14T06:46:41.436Z,-0.30
2022-12-14T06:49:11.792Z,-0.30
2022-12-14T06:51:40.047Z,-0.30
2022-12-14T06:54:07.628Z,-0.30
2022-12-14T06:56:36.421Z,-0.30
2022-12-14T06:59:03.038Z,-0.30
2022-12-14T07:01:30.646Z,-0.40
2022-12-14T07:03:59.531Z,-0.30
2022-12-14T07:06:28.189Z,-0.30
2022-12-14T07:08:59.592Z,-0.30
2022-12-14T07:11:28.015Z,-0.30
2022-12-14T07:13:55.275Z,-0.30
2022-12-14T07:16:26.264Z,-0.40
2022-12-14T07:18:56.790Z,-0.30
2022-12-14T07:21:24.193Z,-0.30
2022-12-14T07:23:54.517Z,-0.30
2022-12-14T07:26:28.005Z,-0.40
2022-12-14T07:28:55.066Z,-0.30
2022-12-14T07:31:23.782Z,-0.30
2022-12-14T07:33:54.194Z,-0.30
2022-12-14T07:36:22.168Z,-0.30
2022-12-14T07:38:50.317Z,-0.30
2022-12-14T07:41:22.738Z,-0.30
2022-12-14T07:43:51.226Z,-0.30
2022-12-14T07:46:21.344Z,-0.30
2022-12-14T07:48:59.163Z,-0.30
2022-12-14T07:51:30.595Z,-0.30
2022-12-14T07:53:58.352Z,-0.30
2022-12-14T07:56:31.204Z,-0.30
2022-12-14T07:58:59.763Z,-0.30
2022-12-14T08:01:29.896Z,-0.30
2022-12-14T08:04:05.197Z,-0.30
2022-12-14T08:06:32.889Z,-0.30
2022-12-14T08:09:02.210Z,-0.30
2022-12-14T08:11:33.655Z,-0.30
2022-12-14T08:14:06.093Z,-0.30
2022-12-14T08:16:33.836Z,-0.40
2022-12-14T08:19:03.260Z,-0.40
2022-12-14T08:21:30.064Z,-0.40
2022-12-14T08:24:01.564Z,-0.40
2022-12-14T08:26:34.873Z,-0.50
2022-12-14T08:29:02.718Z,-0.50
2022-12-14T08:31:30.056Z,-0.40
2022-12-14T08:33:58.470Z,-0.40
2022-12-14T08:36:27.929Z,-0.40
2022-12-14T08:38:58.831Z,-0.40
2022-12-14T08:41:26.419Z,-0.40
2022-12-14T08:43:58.205Z,-0.40
2022-12-14T08:46:29.593Z,-0.40
2022-12-14T08:48:57.340Z,-0.40
2022-12-14T08:51:25.132Z,-0.40
2022-12-14T08:53:52.654Z,-0.40
2022-12-14T08:56:26.933Z,-0.40
2022-12-14T08:58:53.776Z,-0.40
2022-12-14T09:01:31.740Z,-0.30
2022-12-14T09:04:08.180Z,-0.30
2022-12-14T09:06:40.141Z,-0.40
2022-12-14T09:09:13.715Z,-0.30
2022-12-14T09:11:43.679Z,-0.30
2022-12-14T09:14:10.749Z,-0.30
2022-12-14T09:16:37.625Z,-0.30
2022-12-14T09:19:04.401Z,-0.30
2022-12-14T09:21:31.615Z,-0.30
2022-12-14T09:23:59.786Z,-0.30
2022-12-14T09:26:27.446Z,-0.30
2022-12-14T09:28:56.025Z,-0.30
2022-12-14T09:31:25.866Z,-0.40
2022-12-14T09:33:53.266Z,-0.40
2022-12-14T09:36:24.730Z,-0.40
2022-12-14T09:38:55.139Z,-0.40
2022-12-14T09:41:30.328Z,-0.30
2022-12-14T09:44:10.563Z,-0.30
2022-12-14T09:47:09.378Z,-0.20
2022-12-14T09:49:57.259Z,-0.10
2022-12-14T09:52:42.115Z,-0.10
2022-12-14T09:55:22.376Z,0.00
2022-12-14T09:58:12.187Z,0.00
2022-12-14T10:00:49.642Z,0.00
2022-12-14T10:03:44.583Z,0.00
2022-12-14T10:06:49.157Z,0.00
2022-12-14T10:09:39.943Z,0.10
2022-12-14T10:12:12.659Z,0.10
2022-12-14T10:14:54.145Z,0.20
2022-12-14T10:17:59.921Z,0.20
2022-12-14T10:20:48.298Z,0.20
2022-12-14T10:23:23.220Z,0.20
2022-12-14T10:26:00.934Z,0.20
2022-12-14T10:28:42.620Z,0.20
2022-12-14T10:31:16.374Z,0.20
2022-12-14T10:33:45.984Z,0.20
2022-12-14T10:36:24.258Z,0.30
2022-12-14T10:39:01.945Z,0.30
2022-12-14T10:41:41.827Z,0.30
2022-12-14T10:44:59.759Z,0.30
2022-12-14T10:47:42.760Z,0.20
2022-12-14T10:50:41.853Z,0.20
2022-12-14T10:53:17.321Z,0.20
2022-12-14T10:55:45.552Z,0.20
2022-12-14T10:58:12.333Z,0.20
2022-12-14T11:00:41.951Z,0.20
2022-12-14T11:03:16.255Z,0.20
2022-12-14T11:06:02.690Z,0.30
2022-12-14T11:08:49.134Z,0.20
2022-12-14T11:11:20.782Z,0.20
2022-12-14T11:14:06.089Z,0.10
2022-12-14T11:16:38.638Z,0.20
2022-12-14T11:19:15.277Z,0.20
2022-12-14T11:21:41.943Z,0.20
2022-12-14T11:24:25.256Z,0.20
2022-12-14T11:26:57.836Z,0.20
2022-12-14T11:29:39.350Z,0.20
2022-12-14T11:32:07.035Z,0.30
2022-12-14T11:34:38.927Z,0.30
2022-12-14T11:37:13.450Z,0.40
2022-12-14T11:39:45.263Z,0.50
2022-12-14T11:42:20.638Z,0.60
2022-12-14T11:44:49.277Z,0.70
2022-12-14T11:47:19.808Z,0.70
2022-12-14T11:49:49.762Z,0.80
2022-12-14T11:52:23.347Z,0.80
2022-12-14T11:54:54.395Z,0.90
2022-12-14T11:57:25.718Z,0.90
2022-12-14T11:59:55.907Z,1.00
2022-12-14T12:02:30.122Z,1.00
2022-12-14T12:05:11.245Z,1.10
2022-12-14T12:07:58.249Z,1.10
2022-12-14T12:10:50.719Z,1.20
2022-12-14T12:13:22.351Z,1.20
2022-12-14T12:15:53.360Z,1.10
2022-12-14T12:18:40.364Z,1.20
2022-12-14T12:21:14.972Z,1.20
2022-12-14T12:24:02.669Z,1.20
2022-12-14T12:26:34.742Z,1.20
2022-12-14T12:29:10.805Z,1.20
2022-12-14T12:31:56.119Z,1.20
2022-12-14T12:34:29.309Z,1.10
2022-12-14T12:37:25.345Z,1.00
2022-12-14T12:39:52.307Z,0.90
2022-12-14T12:43:00.031Z,0.90
2022-12-14T12:45:36.399Z,0.90
2022-12-14T12:48:12.074Z,0.90
2022-12-14T12:50:49.796Z,0.90
2022-12-14T12:53:22.402Z,1.00
2022-12-14T12:55:57.008Z,1.00
2022-12-14T12:58:31.032Z,1.00
2022-12-14T13:01:05.202Z,1.00
2022-12-14T13:03:42.322Z,1.00
2022-12-14T13:06:27.182Z,1.00
2022-12-14T13:09:01.010Z,1.00
2022-12-14T13:11:36.327Z,1.00
2022-12-14T13:14:19.433Z,1.00
2022-12-14T13:16:47.443Z,1.00
2022-12-14T13:19:50.423Z,1.00
2022-12-14T13:22:30.023Z,1.00
2022-12-14T13:25:00.235Z,1.00
2022-12-14T13:28:02.120Z,1.00
2022-12-14T13:31:07.288Z,0.90
2022-12-14T13:33:52.697Z,0.90
2022-12-14T13:36:40.832Z,0.90
2022-12-14T13:39:10.470Z,0.90
2022-12-14T13:42:05.977Z,0.90
2022-12-14T13:44:51.320Z,0.90
2022-12-14T13:47:23.227Z,0.80
2022-12-14T13:53:01.002Z,0.80
2022-12-14T13:55:46.339Z,0.70
2022-12-14T13:58:41.012Z,0.80
2022-12-14T14:01:48.694Z,0.80
2022-12-14T14:04:21.046Z,0.80
2022-12-14T14:06:51.662Z,0.70
2022-12-14T14:09:28.229Z,0.70
2022-12-14T14:12:26.566Z,0.70
2022-12-14T14:15:02.638Z,0.70
2022-12-14T14:17:48.090Z,0.70
2022-12-14T14:20:38.742Z,0.70
2022-12-14T14:23:16.940Z,0.60
2022-12-14T14:25:51.701Z,0.70
2022-12-14T14:28:23.028Z,0.70
2022-12-14T14:30:53.782Z,0.60
2022-12-14T14:33:46.486Z,0.60
2022-12-14T14:36:37.125Z,0.50
2022-12-14T14:39:55.410Z,0.50
2022-12-14T14:42:26.693Z,0.50
2022-12-14T14:44:57.963Z,0.50
2022-12-14T14:47:32.649Z,0.50
2022-12-14T14:50:08.224Z,0.50
2022-12-14T14:52:43.161Z,0.50
2022-12-14T14:55:52.545Z,0.40
2022-12-14T14:58:30.001Z,0.40
2022-12-14T15:01:08.533Z,0.50
2022-12-14T15:03:53.393Z,0.50
2022-12-14T15:06:39.003Z,0.40
2022-12-14T15:09:20.804Z,0.40
2022-12-14T15:11:49.700Z,0.40
2022-12-14T15:14:48.459Z,0.40
2022-12-14T15:17:16.007Z,0.40
2022-12-14T15:19:51.044Z,0.40
2022-12-14T15:22:21.666Z,0.40
2022-12-14T15:24:51.790Z,0.30
2022-12-14T15:27:20.829Z,0.30
2022-12-14T15:29:49.304Z,0.30
2022-12-14T15:32:18.226Z,0.30
2022-12-14T15:34:56.487Z,0.20
2022-12-14T15:37:42.488Z,0.20
2022-12-14T15:40:16.415Z,0.20
2022-12-14T15:42:54.726Z,0.20
2022-12-14T15:45:34.626Z,0.20
2022-12-14T15:48:23.673Z,0.20
2022-12-14T15:50:56.378Z,0.20
2022-12-14T15:53:37.635Z,0.10
2022-12-14T15:56:22.545Z,0.10
2022-12-14T15:58:53.560Z,0.10
2022-12-14T16:01:34.608Z,0.10
2022-12-14T16:04:07.434Z,0.10
2022-12-14T16:06:40.330Z,0.10
2022-12-14T16:09:26.374Z,0.10
2022-12-14T16:11:56.159Z,0.10
2022-12-14T16:14:28.247Z,0.10
2022-12-14T16:16:57.537Z,0.10
2022-12-14T16:19:31.226Z,0.10
2022-12-14T16:22:24.489Z,0.10
2022-12-14T16:25:07.355Z,0.10
2022-12-14T16:27:38.892Z,0.10
2022-12-14T16:30:32.942Z,0.10
2022-12-14T16:33:21.163Z,0.10
2022-12-14T16:36:08.901Z,0.10
2022-12-14T16:38:41.467Z,0.10
2022-12-14T16:41:10.905Z,0.10
2022-12-14T16:43:42.014Z,0.10
2022-12-14T16:46:13.850Z,0.10
2022-12-14T16:48:50.009Z,0.00
2022-12-14T16:51:44.441Z,0.00
2022-12-14T16:54:27.410Z,0.00
2022-12-14T16:57:25.586Z,0.00
2022-12-14T16:59:58.577Z,0.00
2022-12-14T17:02:44.196Z,0.00
2022-12-14T17:05:17.707Z,-0.10
2022-12-14T17:07:47.098Z,-0.10
2022-12-14T17:10:25.144Z,-0.10
2022-12-14T17:12:57.617Z,-0.10
2022-12-14T17:15:26.244Z,-0.10
2022-12-14T17:17:55.269Z,-0.10
2022-12-14T17:20:36.957Z,-0.10
2022-12-14T17:23:06.215Z,-0.10
2022-12-14T17:25:35.761Z,-0.10
2022-12-14T17:28:02.553Z,-0.10
2022-12-14T17:30:29.389Z,-0.10
2022-12-14T17:32:57.477Z,-0.10
2022-12-14T17:35:31.379Z,-0.10
2022-12-14T17:37:58.112Z,-0.10
2022-12-14T17:40:24.881Z,-0.10
2022-12-14T17:42:53.811Z,-0.10
2022-12-14T17:45:26.856Z,-0.10
2022-12-14T17:47:56.682Z,-0.10
2022-12-14T17:50:23.709Z,-0.10
2022-12-14T17:52:53.201Z,-0.10
2022-12-14T17:55:22.653Z,-0.10
2022-12-14T17:57:50.098Z,-0.10
2022-12-14T18:00:46.782Z,-0.10
2022-12-14T18:03:15.779Z,-0.10
2022-12-14T18:05:49.359Z,-0.10
2022-12-14T18:08:17.377Z,-0.10
2022-12-14T18:10:45.107Z,-0.10
2022-12-14T18:13:13.142Z,-0.10
2022-12-14T18:15:45.806Z,-0.10
2022-12-14T18:18:20.781Z,-0.10
2022-12-14T18:21:00.320Z,-0.10
2022-12-14T18:23:27.877Z,-0.10
2022-12-14T18:25:57.894Z,-0.10
2022-12-14T18:28:24.883Z,-0.10
2022-12-14T18:30:56.872Z,-0.10
2022-12-14T18:33:27.089Z,-0.10
2022-12-14T18:35:58.344Z,-0.10
2022-12-14T18:38:25.545Z,-0.10
2022-12-14T18:40:54.504Z,-0.10
2022-12-14T18:43:24.112Z,-0.10
2022-12-14T18:45:53.078Z,-0.10
2022-12-14T18:48:20.305Z,-0.10
2022-12-14T18:50:49.855Z,-0.20
2022-12-14T18:53:18.725Z,-0.10
2022-12-14T18:55:48.245Z,-0.10
2022-12-14T18:58:20.799Z,-0.20
2022-12-14T19:00:50.070Z,-0.20
2022-12-14T19:03:20.382Z,-0.20
2022-12-14T19:05:49.864Z,-0.20
2022-12-14T19:08:18.871Z,-0.20
2022-12-14T19:10:48.002Z,-0.20
2022-12-14T19:13:26.164Z,-0.20
2022-12-14T19:15:54.139Z,-0.20
2022-12-14T19:18:20.984Z,-0.20
2022-12-14T19:20:50.127Z,-0.20
2022-12-14T19:23:19.240Z,-0.20
2022-12-14T19:25:46.980Z,-0.20
2022-12-14T19:28:31.902Z,-0.20
2022-12-14T19:31:02.586Z,-0.20
2022-12-14T19:33:30.390Z,-0.20
2022-12-14T19:36:00.224Z,-0.20
2022-12-14T19:38:28.302Z,-0.20
2022-12-14T19:41:00.567Z,-0.20
2022-12-14T19:43:29.002Z,-0.20
2022-12-14T19:45:56.174Z,-0.20
2022-12-14T19:48:24.967Z,-0.20
2022-12-14T19:50:51.807Z,-0.30
2022-12-14T19:53:23.148Z,-0.30
2022-12-14T19:55:52.453Z,-0.30
2022-12-14T19:58:21.856Z,-0.30
2022-12-14T20:00:49.776Z,-0.30
2022-12-14T20:03:16.791Z,-0.30
2022-12-14T20:05:54.902Z,-0.30
2022-12-14T20:08:22.382Z,-0.30
2022-12-14T20:10:49.740Z,-0.30
2022-12-14T20:13:18.685Z,-0.40
2022-12-14T20:15:58.188Z,-0.30
2022-12-14T20:18:29.171Z,-0.40
2022-12-14T20:21:04.038Z,-0.40
2022-12-14T20:23:32.917Z,-0.40
2022-12-14T20:26:01.709Z,-0.40
2022-12-14T20:28:33.120Z,-0.40
2022-12-14T20:31:00.560Z,-0.50
2022-12-14T20:33:30.967Z,-0.50
2022-12-14T20:35:57.940Z,-0.50
2022-12-14T20:38:24.895Z,-0.50
2022-12-14T20:40:51.554Z,-0.50
2022-12-14T20:43:18.388Z,-0.50
2022-12-14T20:45:47.548Z,-0.60
2022-12-14T20:48:14.199Z,-0.60
2022-12-14T20:50:43.420Z,-0.60
2022-12-14T20:53:10.171Z,-0.60
2022-12-14T20:55:36.933Z,-0.60
2022-12-14T20:58:03.674Z,-0.70
2022-12-14T21:00:30.609Z,-0.70
2022-12-14T21:02:57.739Z,-0.70
2022-12-14T21:05:27.628Z,-0.70
2022-12-14T21:07:56.581Z,-0.70
2022-12-14T21:10:23.225Z,-0.70
2022-12-14T21:12:52.638Z,-0.70
2022-12-14T21:15:19.359Z,-0.60
2022-12-14T21:17:47.170Z,-0.70
2022-12-14T21:20:16.201Z,-0.70
2022-12-14T21:22:42.983Z,-0.70
2022-12-14T21:25:09.866Z,-0.70
2022-12-14T21:27:39.428Z,-0.70
2022-12-14T21:30:11.200Z,-0.70
2022-12-14T21:32:38.986Z,-0.70
2022-12-14T21:35:06.273Z,-0.70
2022-12-14T21:37:32.992Z,-0.70
2022-12-14T21:40:03.728Z,-0.70
2022-12-14T21:42:32.703Z,-0.60
2022-12-14T21:44:59.458Z,-0.70
2022-12-14T21:47:29.390Z,-0.70
2022-12-14T21:49:56.704Z,-0.70
2022-12-14T21:52:28.093Z,-0.60
2022-12-14T21:54:55.031Z,-0.60
2022-12-14T21:57:42.590Z,-0.70
2022-12-14T22:00:11.008Z,-0.60
2022-12-14T22:02:37.924Z,-0.60
2022-12-14T22:05:07.128Z,-0.70
2022-12-14T22:07:36.897Z,-0.70
2022-12-14T22:10:04.081Z,-0.70
2022-12-14T22:12:30.791Z,-0.70
2022-12-14T22:14:57.607Z,-0.70
2022-12-14T22:17:24.349Z,-0.70
2022-12-14T22:19:52.064Z,-0.70
2022-12-14T22:22:18.753Z,-0.70
2022-12-14T22:24:48.560Z,-0.60
2022-12-14T22:27:18.333Z,-0.70
2022-12-14T22:29:45.010Z,-0.60
2022-12-14T22:32:14.782Z,-0.60
2022-12-14T22:34:41.587Z,-0.70
2022-12-14T22:37:14.457Z,-0.70
2022-12-14T22:39:43.398Z,-0.60
2022-12-14T22:42:10.543Z,-0.70
2022-12-14T22:44:37.570Z,-0.70
2022-12-14T22:47:04.216Z,-0.60
2022-12-14T22:49:30.819Z,-0.60
2022-12-14T22:51:59.698Z,-0.70
2022-12-14T22:54:27.565Z,-0.70
2022-12-14T22:57:02.413Z,-0.70
2022-12-14T23:00:04.847Z,-0.70
2022-12-14T23:02:31.872Z,-0.70
2022-12-14T23:04:59.039Z,-0.70
2022-12-14T23:07:28.251Z,-0.70
2022-12-14T23:10:13.430Z,-0.60
2022-12-14T23:12:59.421Z,-0.70
2022-12-14T23:15:44.611Z,-0.70
2022-12-14T23:18:30.233Z,-0.70
2022-12-14T23:21:15.762Z,-0.70
2022-12-14T23:24:03.186Z,-0.70
2022-12-14T23:26:49.295Z,-0.70
2022-12-14T23:29:34.627Z,-0.70
2022-12-14T23:32:20.101Z,-0.70
2022-12-14T23:35:05.588Z,-0.70
2022-12-14T23:37:50.931Z,-0.70
2022-12-14T23:40:36.532Z,-0.70
2022-12-14T23:43:28.996Z,-0.70
2022-12-14T23:46:14.569Z,-0.60
2022-12-14T23:49:00.049Z,-0.60
2022-12-14T23:51:45.714Z,-0.60
2022-12-14T23:54:31.290Z,-0.70
2022-12-14T23:57:17.148Z,-0.70
